createdAt,value
2022-07-26T00:00:52.442Z,1.67
2022-07-26T00:05:10.530Z,0.77
2022-07-26T00:09:27.952Z,1.70
2022-07-26T00:13:30.963Z,1.17
2022-07-26T00:17:40.818Z,1.10
2022-07-26T00:22:20.068Z,1.20
2022-07-26T00:26:33.339Z,1.52
2022-07-26T00:30:45.760Z,0.93
2022-07-26T00:34:53.310Z,1.20
2022-07-26T00:39:01.431Z,1.30
2022-07-26T00:43:09.926Z,1.27
2022-07-26T00:47:16.231Z,0.98
2022-07-26T00:51:20.862Z,1.30
2022-07-26T00:55:29.400Z,1.27
2022-07-26T00:59:46.840Z,1.10
2022-07-26T01:03:55.309Z,1.38
2022-07-26T01:08:28.602Z,1.20
2022-07-26T01:21:51.796Z,1.27
2022-07-26T01:26:30.263Z,3.08
2022-07-26T01:57:55.927Z,1.42
2022-07-26T02:02:17.043Z,1.48
2022-07-26T02:06:37.503Z,1.80
2022-07-26T02:12:37.092Z,1.70
2022-07-26T02:15:59.428Z,1.08
2022-07-26T02:20:22.953Z,1.63
2022-07-26T02:24:38.133Z,1.65
2022-07-26T02:33:03.280Z,1.40
2022-07-26T02:41:39.744Z,1.65
2022-07-26T02:46:41.414Z,1.45
2022-07-26T02:50:51.316Z,1.75
2022-07-26T02:55:06.095Z,1.48
2022-07-26T02:59:24.733Z,1.25
2022-07-26T03:03:29.756Z,2.22
2022-07-26T03:07:40.120Z,1.45
2022-07-26T03:12:03.797Z,1.63
2022-07-26T03:16:08.585Z,1.65
2022-07-26T03:20:17.383Z,2.15
2022-07-26T03:24:22.478Z,1.80
2022-07-26T03:28:29.805Z,2.05
2022-07-26T03:32:52.274Z,1.85
2022-07-26T03:41:32.569Z,2.50
2022-07-26T03:49:53.041Z,2.20
2022-07-26T03:53:55.291Z,2.67
2022-07-26T04:02:17.947Z,2.53
2022-07-26T04:06:32.690Z,2.35
2022-07-26T04:10:48.733Z,3.00
2022-07-26T04:14:53.361Z,2.30
2022-07-26T04:18:59.392Z,2.80
2022-07-26T04:23:11.304Z,2.47
2022-07-26T04:27:22.786Z,2.92
2022-07-26T04:31:25.637Z,3.28
2022-07-26T04:35:30.930Z,2.80
2022-07-26T04:39:38.037Z,2.63
2022-07-26T04:43:43.069Z,2.67
2022-07-26T04:47:55.683Z,2.63
2022-07-26T04:56:04.250Z,2.00
2022-07-26T05:00:23.041Z,2.42
2022-07-26T05:04:29.093Z,2.08
2022-07-26T05:08:31.199Z,3.10
2022-07-26T05:12:36.879Z,2.88
2022-07-26T05:16:44.446Z,2.88
2022-07-26T05:20:47.631Z,2.65
2022-07-26T05:24:52.461Z,3.67
2022-07-26T05:28:56.993Z,2.42
2022-07-26T05:32:59.133Z,1.80
2022-07-26T05:37:05.859Z,2.65
2022-07-26T05:41:12.747Z,3.40
2022-07-26T05:45:19.531Z,2.67
2022-07-26T05:49:27.751Z,3.08
2022-07-26T05:53:48.212Z,4.25
2022-07-26T05:57:50.631Z,3.08
2022-07-26T06:06:13.490Z,3.78
2022-07-26T06:10:25.846Z,3.17
2022-07-26T06:14:34.630Z,3.17
2022-07-26T06:18:48.636Z,3.00
2022-07-26T06:22:53.265Z,2.63
2022-07-26T06:27:05.996Z,3.03
2022-07-26T06:40:21.349Z,3.13
2022-07-26T06:48:39.765Z,4.10
2022-07-26T06:52:57.274Z,3.55
2022-07-26T07:12:10.105Z,4.68
2022-07-26T07:16:31.229Z,3.78
2022-07-26T07:20:40.972Z,3.50
2022-07-26T07:24:59.934Z,3.88
2022-07-26T07:34:13.832Z,4.05
2022-07-26T07:38:29.934Z,3.67
2022-07-26T07:42:53.103Z,4.20
2022-07-26T07:56:28.312Z,4.00
2022-07-26T08:00:49.833Z,4.28
2022-07-26T08:05:13.926Z,4.10
2022-07-26T08:09:28.729Z,5.25
2022-07-26T08:13:59.036Z,3.55
2022-07-26T08:18:22.309Z,2.60
2022-07-26T08:22:59.927Z,3.13
2022-07-26T08:27:41.060Z,2.90
2022-07-26T08:31:48.583Z,2.33
2022-07-26T08:36:17.111Z,2.35
2022-07-26T08:40:34.855Z,2.60
2022-07-26T08:45:05.391Z,3.17
2022-07-26T08:50:00.209Z,2.83
2022-07-26T08:54:06.011Z,2.90
2022-07-26T08:58:56.167Z,3.00
2022-07-26T09:03:26.821Z,2.95
2022-07-26T09:07:45.469Z,2.67
2022-07-26T09:12:00.662Z,3.50
2022-07-26T09:16:18.844Z,2.00
2022-07-26T09:20:36.657Z,2.33
2022-07-26T09:24:50.761Z,2.88
2022-07-26T09:29:18.182Z,2.60
2022-07-26T09:33:48.728Z,2.00
2022-07-26T09:37:57.723Z,3.58
2022-07-26T09:42:29.579Z,2.75
2022-07-26T09:47:11.845Z,2.30
2022-07-26T09:51:49.259Z,2.17
2022-07-26T09:56:01.458Z,2.53
2022-07-26T10:04:27.461Z,2.63
2022-07-26T10:08:56.133Z,2.90
2022-07-26T10:13:12.842Z,1.83
2022-07-26T10:17:31.360Z,3.53
2022-07-26T10:21:55.495Z,1.67
2022-07-26T10:26:14.827Z,2.20
2022-07-26T10:30:35.556Z,2.08
2022-07-26T10:34:54.772Z,2.08
2022-07-26T10:39:55.959Z,1.70
2022-07-26T10:44:31.939Z,2.15
2022-07-26T10:49:18.330Z,2.38
2022-07-26T10:58:06.077Z,1.35
2022-07-26T11:02:34.822Z,1.15
2022-07-26T11:06:52.639Z,0.88
2022-07-26T11:11:11.593Z,0.85
2022-07-26T11:15:55.494Z,0.60
2022-07-26T11:20:16.501Z,0.85
2022-07-26T11:24:35.141Z,0.80
2022-07-26T11:29:16.730Z,0.90
2022-07-26T11:38:12.490Z,1.13
2022-07-26T11:42:42.212Z,0.68
2022-07-26T11:47:14.712Z,0.80
2022-07-26T11:51:43.749Z,1.40
2022-07-26T11:56:11.692Z,0.90
2022-07-26T12:05:23.059Z,2.10
2022-07-26T12:09:56.331Z,1.10
2022-07-26T12:18:43.720Z,0.85
2022-07-26T12:23:01.568Z,0.65
2022-07-26T12:27:29.354Z,0.80
2022-07-26T12:31:48.678Z,0.95
2022-07-26T12:36:34.946Z,1.17
2022-07-26T12:40:21.992Z,1.20
2022-07-26T12:44:25.168Z,1.50
2022-07-26T12:48:50.071Z,1.75
2022-07-26T12:53:12.869Z,0.80
2022-07-26T12:57:29.960Z,0.60
2022-07-26T13:06:04.421Z,1.10
2022-07-26T13:10:34.743Z,0.73
2022-07-26T13:14:55.540Z,0.60
2022-07-26T13:19:04.092Z,0.85
2022-07-26T13:23:21.428Z,1.40
2022-07-26T13:27:27.602Z,0.80
2022-07-26T13:31:56.966Z,0.70
2022-07-26T13:40:20.020Z,2.22
2022-07-26T13:44:25.523Z,1.25
2022-07-26T13:49:05.102Z,1.20
2022-07-26T13:53:21.914Z,1.05
2022-07-26T14:02:01.751Z,0.95
2022-07-26T14:06:11.648Z,1.20
2022-07-26T14:10:47.369Z,1.00
2022-07-26T14:15:13.000Z,0.60
2022-07-26T14:19:19.571Z,0.65
2022-07-26T14:23:46.536Z,0.60
2022-07-26T14:28:29.117Z,1.10
2022-07-26T14:32:34.870Z,0.90
2022-07-26T14:37:08.359Z,0.80
2022-07-26T14:41:38.765Z,0.60
2022-07-26T14:50:18.957Z,0.60
2022-07-26T14:54:30.966Z,0.77
2022-07-26T15:02:59.595Z,0.60
2022-07-26T15:07:04.847Z,0.50
2022-07-26T15:15:37.673Z,0.88
2022-07-26T15:20:03.597Z,0.60
2022-07-26T15:24:14.415Z,0.52
2022-07-26T15:28:28.439Z,0.80
2022-07-26T15:32:35.318Z,0.60
2022-07-26T15:36:47.208Z,0.70
2022-07-26T15:41:04.565Z,0.98
2022-07-26T15:45:10.434Z,0.68
2022-07-26T15:49:19.469Z,0.60
2022-07-26T15:53:27.841Z,0.50
2022-07-26T15:57:59.251Z,1.10
2022-07-26T16:02:04.960Z,0.88
2022-07-26T16:06:18.616Z,0.63
2022-07-26T16:10:30.063Z,0.77
2022-07-26T16:14:53.305Z,0.50
2022-07-26T16:19:06.582Z,0.95
2022-07-26T16:23:11.411Z,1.35
2022-07-26T16:27:13.661Z,1.40
2022-07-26T16:35:21.197Z,1.30
2022-07-26T16:39:36.507Z,0.60
2022-07-26T16:48:06.746Z,0.60
2022-07-26T16:52:09.350Z,0.70
2022-07-26T16:56:24.010Z,1.05
2022-07-26T17:00:28.931Z,0.80
2022-07-26T17:04:31.834Z,0.65
2022-07-26T17:08:34.738Z,0.73
2022-07-26T17:12:37.929Z,1.13
2022-07-26T17:16:42.875Z,1.05
2022-07-26T17:20:44.977Z,0.80
2022-07-26T17:24:59.741Z,0.70
2022-07-26T17:29:08.093Z,0.77
2022-07-26T17:33:13.336Z,0.70
2022-07-26T17:37:15.698Z,0.82
2022-07-26T17:45:21.582Z,1.35
2022-07-26T17:49:27.732Z,2.17
2022-07-26T17:53:34.088Z,1.40
2022-07-26T17:57:36.919Z,1.27
2022-07-26T18:01:50.448Z,1.30
2022-07-26T18:06:19.238Z,0.98
2022-07-26T18:10:21.761Z,1.63
2022-07-26T18:18:43.706Z,1.20
2022-07-26T18:22:50.092Z,1.08
2022-07-26T18:26:52.686Z,0.80
2022-07-26T18:30:54.879Z,1.83
2022-07-26T18:34:58.367Z,1.45
2022-07-26T18:39:04.127Z,1.52
2022-07-26T18:43:08.887Z,1.38
2022-07-26T18:47:11.143Z,1.60
2022-07-26T18:51:13.231Z,1.30
2022-07-26T18:55:19.082Z,2.75
2022-07-26T18:59:24.129Z,1.45
2022-07-26T19:03:26.676Z,1.80
2022-07-26T19:07:31.947Z,1.88
2022-07-26T19:11:41.615Z,1.27
2022-07-26T19:15:48.260Z,1.38
2022-07-26T19:19:50.578Z,1.40
2022-07-26T19:27:57.817Z,1.35
2022-07-26T19:32:00.189Z,1.40
2022-07-26T19:40:06.911Z,2.33
2022-07-26T19:44:14.099Z,1.38
2022-07-26T19:48:18.844Z,1.40
2022-07-26T19:52:27.159Z,1.77
2022-07-26T19:56:30.876Z,1.55
2022-07-26T20:00:40.806Z,2.53
2022-07-26T20:04:46.106Z,1.50
2022-07-26T20:08:58.902Z,2.50
2022-07-26T20:17:04.966Z,1.48
2022-07-26T20:25:40.814Z,1.55
2022-07-26T20:29:49.019Z,1.30
2022-07-26T20:33:51.299Z,1.80
2022-07-26T20:37:53.355Z,2.38
2022-07-26T20:41:59.343Z,2.03
2022-07-26T20:46:03.971Z,1.55
2022-07-26T20:50:09.410Z,1.50
2022-07-26T20:54:14.990Z,1.13
2022-07-26T20:58:18.478Z,1.60
2022-07-26T21:02:26.291Z,1.58
2022-07-26T21:06:34.402Z,1.27
2022-07-26T21:10:36.899Z,1.45
2022-07-26T21:18:45.545Z,1.10
2022-07-26T21:23:12.866Z,1.88
2022-07-26T21:27:29.951Z,1.40
2022-07-26T21:31:32.323Z,1.42
2022-07-26T21:35:35.524Z,1.05
2022-07-26T21:39:40.478Z,0.82
2022-07-26T21:43:44.811Z,0.90
2022-07-26T21:47:46.968Z,1.30
2022-07-26T21:51:58.604Z,1.27
2022-07-26T21:56:01.282Z,1.13
2022-07-26T22:00:10.226Z,1.52
2022-07-26T22:04:13.625Z,1.30
2022-07-26T22:08:16.099Z,1.60
2022-07-26T22:12:19.204Z,1.60
2022-07-26T22:16:22.027Z,1.85
2022-07-26T22:20:24.271Z,1.73
2022-07-26T22:24:26.330Z,1.58
2022-07-26T22:28:29.849Z,0.90
2022-07-26T22:32:32.876Z,0.80
2022-07-26T22:36:35.527Z,0.95
2022-07-26T22:44:43.572Z,1.15
2022-07-26T22:48:48.200Z,2.10
2022-07-26T22:52:50.279Z,1.63
2022-07-26T22:56:52.341Z,1.00
2022-07-26T23:00:54.780Z,1.10
2022-07-26T23:09:01.968Z,0.93
2022-07-26T23:13:05.887Z,0.80
2022-07-26T23:17:08.468Z,1.13
2022-07-26T23:25:13.870Z,1.38
2022-07-26T23:29:16.436Z,1.13
2022-07-26T23:37:40.665Z,1.42
2022-07-26T23:41:42.948Z,1.13
2022-07-26T23:45:45.432Z,1.30
2022-07-26T23:49:47.479Z,1.23
2022-07-26T23:53:54.383Z,0.95
